createdAt,value
2019-04-26T00:01:18.589Z,16.53
2019-04-26T00:03:48.571Z,17.73
2019-04-26T00:06:18.822Z,16.93
2019-04-26T00:08:56.822Z,20.00
2019-04-26T00:12:00.684Z,21.97
2019-04-26T00:14:47.584Z,17.13
2019-04-26T00:17:35.933Z,17.97
2019-04-26T00:20:06.187Z,18.17
2019-04-26T00:22:35.689Z,18.90
2019-04-26T00:25:05.692Z,19.80
2019-04-26T00:27:35.173Z,22.00
2019-04-26T00:30:04.896Z,25.73
2019-04-26T00:32:34.267Z,18.73
2019-04-26T00:35:03.647Z,20.77
2019-04-26T00:37:33.009Z,21.07
2019-04-26T00:40:02.409Z,18.73
2019-04-26T00:42:33.532Z,23.23
2019-04-26T00:45:02.958Z,21.93
2019-04-26T00:47:32.445Z,19.03
2019-04-26T00:50:02.501Z,22.07
2019-04-26T00:52:33.195Z,19.77
2019-04-26T00:55:03.837Z,20.30
2019-04-26T00:57:34.797Z,20.63
2019-04-26T01:00:05.902Z,22.27
2019-04-26T01:02:43.728Z,23.77
2019-04-26T01:05:13.149Z,22.20
2019-04-26T01:07:44.326Z,26.43
2019-04-26T01:10:13.677Z,21.07
2019-04-26T01:12:43.104Z,24.07
2019-04-26T01:15:12.681Z,18.33
2019-04-26T01:17:42.383Z,25.23
2019-04-26T01:20:12.613Z,21.57
2019-04-26T01:22:46.408Z,18.37
2019-04-26T01:25:46.931Z,20.20
2019-04-26T01:28:23.386Z,18.53
2019-04-26T01:30:54.924Z,17.50
2019-04-26T01:33:24.761Z,19.97
2019-04-26T01:35:54.355Z,18.13
2019-04-26T01:38:23.888Z,20.47
2019-04-26T01:40:55.944Z,17.20
2019-04-26T01:43:47.227Z,21.47
2019-04-26T01:46:25.288Z,20.37
2019-04-26T01:49:02.487Z,22.73
2019-04-26T01:51:47.118Z,25.03
2019-04-26T01:54:19.676Z,19.30
2019-04-26T01:56:51.879Z,22.93
2019-04-26T01:59:22.690Z,20.00
2019-04-26T02:02:00.742Z,19.87
2019-04-26T02:04:32.542Z,20.50
2019-04-26T02:07:02.374Z,25.03
2019-04-26T02:09:32.768Z,22.93
2019-04-26T02:12:02.984Z,21.50
2019-04-26T02:14:33.324Z,24.47
2019-04-26T02:17:03.002Z,21.70
2019-04-26T02:19:33.735Z,21.33
2019-04-26T02:22:16.413Z,22.33
2019-04-26T02:24:47.586Z,22.43
2019-04-26T02:27:26.329Z,20.30
2019-04-26T02:29:56.752Z,20.40
2019-04-26T02:32:27.212Z,20.90
2019-04-26T02:34:58.473Z,25.17
2019-04-26T02:37:28.760Z,29.40
2019-04-26T02:39:59.271Z,23.40
2019-04-26T02:42:41.386Z,23.03
2019-04-26T02:46:00.310Z,22.93
2019-04-26T02:49:14.815Z,20.20
2019-04-26T02:51:51.202Z,24.63
2019-04-26T02:54:46.864Z,22.53
2019-04-26T02:57:36.627Z,22.47
2019-04-26T03:00:10.271Z,24.80
2019-04-26T03:02:40.441Z,25.03
2019-04-26T03:05:10.880Z,24.23
2019-04-26T03:08:15.792Z,25.37
2019-04-26T03:10:49.681Z,28.40
2019-04-26T03:13:40.922Z,24.97
2019-04-26T03:16:32.778Z,30.50
2019-04-26T03:19:27.486Z,24.87
2019-04-26T03:22:06.859Z,24.53
2019-04-26T03:24:56.374Z,20.10
2019-04-26T03:27:41.013Z,26.67
2019-04-26T03:30:41.469Z,25.50
2019-04-26T03:33:53.183Z,21.77
2019-04-26T03:36:35.407Z,21.87
2019-04-26T03:39:26.064Z,23.77
2019-04-26T03:42:11.968Z,22.10
2019-04-26T03:44:53.444Z,20.83
2019-04-26T03:47:25.591Z,23.43
2019-04-26T03:50:22.779Z,23.80
2019-04-26T03:53:08.797Z,24.00
2019-04-26T03:56:28.112Z,19.97
2019-04-26T03:59:45.927Z,19.70
2019-04-26T04:02:37.389Z,19.33
2019-04-26T04:05:22.169Z,20.60
2019-04-26T04:07:54.431Z,28.43
2019-04-26T04:10:26.881Z,22.03
2019-04-26T04:13:04.939Z,31.57
2019-04-26T04:15:44.068Z,23.53
2019-04-26T04:18:20.282Z,23.97
2019-04-26T04:21:34.091Z,22.57
2019-04-26T04:24:13.541Z,27.80
2019-04-26T04:27:25.732Z,24.27
2019-04-26T04:30:26.882Z,20.13
2019-04-26T04:33:22.819Z,19.33
2019-04-26T04:35:56.434Z,22.17
2019-04-26T04:38:38.061Z,28.30
2019-04-26T04:41:28.535Z,25.43
2019-04-26T04:44:27.541Z,29.87
2019-04-26T04:47:31.471Z,30.97
2019-04-26T04:50:33.329Z,25.33
2019-04-26T04:53:25.396Z,27.20
2019-04-26T04:56:33.498Z,23.40
2019-04-26T04:59:07.091Z,23.33
2019-04-26T05:02:25.064Z,21.47
2019-04-26T05:05:49.058Z,24.93
2019-04-26T05:08:34.598Z,31.07
2019-04-26T05:11:13.878Z,24.93
2019-04-26T05:13:48.570Z,28.67
2019-04-26T05:16:52.581Z,25.73
2019-04-26T05:19:52.803Z,22.67
2019-04-26T05:23:14.435Z,29.20
2019-04-26T05:26:46.117Z,26.77
2019-04-26T05:30:02.556Z,30.20
2019-04-26T05:33:17.810Z,32.60
2019-04-26T05:36:37.754Z,29.17
2019-04-26T05:39:30.417Z,25.63
2019-04-26T05:42:23.961Z,27.80
2019-04-26T05:45:44.505Z,24.33
2019-04-26T05:49:02.842Z,29.27
2019-04-26T05:52:04.560Z,32.43
2019-04-26T05:55:16.104Z,24.13
2019-04-26T05:58:33.227Z,26.60
2019-04-26T06:01:54.880Z,24.07
2019-04-26T06:05:08.232Z,27.47
2019-04-26T06:08:06.546Z,31.70
2019-04-26T06:10:47.402Z,28.63
2019-04-26T06:14:30.704Z,28.43
2019-04-26T06:17:22.883Z,35.70
2019-04-26T06:20:35.322Z,25.93
2019-04-26T06:23:27.283Z,26.63
2019-04-26T06:26:08.790Z,23.07
2019-04-26T06:29:06.341Z,23.00
2019-04-26T06:31:41.774Z,28.98
2019-04-26T06:34:26.117Z,32.42
2019-04-26T06:37:11.671Z,24.32
2019-04-26T06:39:59.944Z,27.40
2019-04-26T06:43:02.798Z,31.45
2019-04-26T06:46:06.045Z,24.92
2019-04-26T06:49:15.599Z,24.77
2019-04-26T06:51:51.183Z,25.60
2019-04-26T06:54:43.824Z,29.70
2019-04-26T06:58:19.045Z,26.10
2019-04-26T07:01:09.569Z,33.92
2019-04-26T07:03:52.409Z,31.90
2019-04-26T07:06:34.794Z,27.62
2019-04-26T07:09:09.850Z,30.55
2019-04-26T07:12:25.081Z,28.02
2019-04-26T07:15:28.416Z,29.32
2019-04-26T07:18:12.831Z,27.58
2019-04-26T07:21:09.180Z,25.10
2019-04-26T07:24:53.134Z,26.45
2019-04-26T07:27:38.007Z,22.60
2019-04-26T07:30:23.425Z,26.55
2019-04-26T07:33:22.358Z,26.82
2019-04-26T07:36:41.963Z,24.02
2019-04-26T07:39:31.939Z,24.85
2019-04-26T07:42:54.014Z,27.87
2019-04-26T07:46:01.345Z,26.80
2019-04-26T07:49:03.187Z,23.67
2019-04-26T07:52:20.265Z,22.30
2019-04-26T07:55:23.480Z,30.70
2019-04-26T07:58:35.617Z,24.65
2019-04-26T08:01:22.941Z,29.30
2019-04-26T08:04:05.294Z,22.07
2019-04-26T08:06:56.122Z,26.70
2019-04-26T08:09:28.234Z,20.97
2019-04-26T08:12:06.048Z,21.42
2019-04-26T08:14:49.572Z,25.15
2019-04-26T08:17:46.812Z,22.60
2019-04-26T08:20:38.999Z,26.62
2019-04-26T08:23:28.175Z,20.32
2019-04-26T08:25:43.999Z,20.88
2019-04-26T08:28:17.407Z,24.98
2019-04-26T08:30:50.303Z,26.68
2019-04-26T08:33:25.375Z,25.95
2019-04-26T08:35:57.307Z,27.10
2019-04-26T08:38:28.809Z,28.75
2019-04-26T08:41:00.424Z,25.85
2019-04-26T08:43:47.840Z,27.40
2019-04-26T08:46:37.968Z,24.85
2019-04-26T08:49:27.314Z,23.32
2019-04-26T08:51:59.955Z,26.97
2019-04-26T08:54:34.386Z,31.23
2019-04-26T08:57:08.539Z,31.40
2019-04-26T08:59:46.478Z,29.65
2019-04-26T09:02:39.893Z,30.88
2019-04-26T09:05:31.127Z,26.62
2019-04-26T09:08:04.018Z,36.10
2019-04-26T09:10:39.335Z,36.48
2019-04-26T09:13:10.095Z,32.50
2019-04-26T09:16:17.293Z,32.80
2019-04-26T09:18:52.348Z,32.40
2019-04-26T09:21:20.897Z,30.30
2019-04-26T09:24:25.363Z,37.08
2019-04-26T09:27:07.173Z,36.28
2019-04-26T09:29:55.455Z,34.60
2019-04-26T09:32:40.429Z,27.80
2019-04-26T09:35:11.208Z,25.17
2019-04-26T09:37:41.468Z,29.77
2019-04-26T09:40:21.170Z,36.77
2019-04-26T09:42:59.666Z,35.03
2019-04-26T09:45:48.134Z,35.00
2019-04-26T09:48:25.068Z,33.90
2019-04-26T09:50:55.071Z,31.37
2019-04-26T09:53:24.558Z,33.90
2019-04-26T09:55:53.997Z,28.23
2019-04-26T09:58:26.894Z,33.67
2019-04-26T10:00:56.447Z,31.23
2019-04-26T10:03:25.858Z,31.10
2019-04-26T10:05:55.856Z,31.48
2019-04-26T10:08:26.374Z,31.10
2019-04-26T10:10:55.745Z,33.85
2019-04-26T10:13:49.176Z,25.62
2019-04-26T10:16:26.257Z,30.27
2019-04-26T10:19:01.367Z,30.25
2019-04-26T10:21:30.726Z,30.37
2019-04-26T10:24:00.203Z,32.05
2019-04-26T10:26:30.019Z,29.57
2019-04-26T10:28:59.376Z,35.90
2019-04-26T10:31:28.735Z,30.35
2019-04-26T10:33:58.084Z,33.35
2019-04-26T10:36:30.094Z,30.75
2019-04-26T10:38:59.706Z,29.00
2019-04-26T10:41:29.063Z,31.87
2019-04-26T10:43:58.398Z,32.15
2019-04-26T10:46:29.478Z,31.60
2019-04-26T10:49:08.947Z,35.35
2019-04-26T10:51:38.573Z,37.88
2019-04-26T10:54:15.712Z,33.40
2019-04-26T10:56:56.356Z,30.48
2019-04-26T10:59:44.054Z,35.00
2019-04-26T11:02:17.883Z,39.80
2019-04-26T11:04:47.680Z,36.83
2019-04-26T11:07:17.085Z,37.28
2019-04-26T11:09:46.475Z,28.25
2019-04-26T11:12:17.592Z,31.35
2019-04-26T11:14:46.963Z,30.97
2019-04-26T11:17:17.835Z,32.88
2019-04-26T11:19:47.759Z,32.23
2019-04-26T11:22:28.618Z,36.88
2019-04-26T11:24:53.429Z,33.05
2019-04-26T11:27:21.055Z,34.65
2019-04-26T11:29:53.906Z,28.98
2019-04-26T11:32:21.511Z,34.13
2019-04-26T11:34:54.453Z,29.57
2019-04-26T11:37:22.111Z,28.25
2019-04-26T11:39:52.463Z,29.05
2019-04-26T11:42:22.309Z,28.23
2019-04-26T11:44:51.708Z,26.35
2019-04-26T11:47:21.676Z,31.95
2019-04-26T11:49:51.918Z,27.80
2019-04-26T11:52:21.309Z,25.65
2019-04-26T11:54:51.215Z,31.52
2019-04-26T11:57:22.526Z,30.57
2019-04-26T11:59:52.269Z,35.58
2019-04-26T12:02:21.681Z,29.07
2019-04-26T12:04:59.595Z,28.45
2019-04-26T12:07:39.172Z,30.72
2019-04-26T12:10:09.877Z,31.70
2019-04-26T12:12:43.151Z,29.42
2019-04-26T12:15:11.232Z,29.57
2019-04-26T12:17:41.018Z,26.62
2019-04-26T12:20:10.404Z,31.33
2019-04-26T12:22:43.261Z,26.52
2019-04-26T12:25:12.506Z,29.92
2019-04-26T12:27:42.473Z,21.75
2019-04-26T12:30:12.682Z,26.60
2019-04-26T12:32:42.071Z,27.37
2019-04-26T12:35:11.554Z,29.75
2019-04-26T12:37:41.002Z,31.45
2019-04-26T12:40:11.214Z,33.95
2019-04-26T12:42:43.369Z,33.15
2019-04-26T12:45:31.781Z,28.55
2019-04-26T12:48:02.297Z,33.58
2019-04-26T12:50:36.464Z,30.40
2019-04-26T12:53:02.774Z,27.55
2019-04-26T12:55:32.213Z,34.50
2019-04-26T12:58:01.622Z,27.20
2019-04-26T13:00:33.166Z,28.57
2019-04-26T13:03:04.045Z,29.30
2019-04-26T13:05:33.432Z,33.40
2019-04-26T13:08:02.802Z,32.05
2019-04-26T13:10:53.989Z,25.25
2019-04-26T13:13:27.484Z,31.07
2019-04-26T13:16:21.505Z,33.40
2019-04-26T13:18:50.657Z,26.73
2019-04-26T13:21:20.058Z,21.40
2019-04-26T13:23:49.443Z,21.42
2019-04-26T13:26:18.825Z,30.35
2019-04-26T13:28:48.225Z,30.57
2019-04-26T13:31:17.668Z,37.25
2019-04-26T13:33:47.029Z,30.30
2019-04-26T13:36:16.465Z,22.73
2019-04-26T13:38:46.816Z,22.62
2019-04-26T13:41:16.353Z,28.20
2019-04-26T13:43:45.804Z,25.20
2019-04-26T13:46:36.156Z,27.73
2019-04-26T13:49:36.797Z,22.50
2019-04-26T13:52:06.213Z,24.50
2019-04-26T13:54:35.632Z,26.90
2019-04-26T13:57:06.105Z,28.30
2019-04-26T13:59:36.204Z,29.07
2019-04-26T14:02:11.590Z,26.73
2019-04-26T14:04:37.237Z,23.55
2019-04-26T14:07:07.868Z,25.57
2019-04-26T14:09:37.222Z,26.75
2019-04-26T14:12:18.357Z,27.15
2019-04-26T14:14:39.444Z,22.00
2019-04-26T14:17:09.660Z,19.15
2019-04-26T14:19:39.006Z,18.87
2019-04-26T14:22:08.564Z,22.73
2019-04-26T14:24:46.649Z,23.62
2019-04-26T14:27:34.912Z,21.33
2019-04-26T14:30:06.620Z,25.85
2019-04-26T14:32:36.222Z,21.05
2019-04-26T14:35:05.995Z,23.00
2019-04-26T14:37:35.374Z,24.15
2019-04-26T14:40:16.717Z,22.02
2019-04-26T14:42:42.222Z,25.45
2019-04-26T14:45:07.517Z,25.40
2019-04-26T14:47:46.837Z,20.92
2019-04-26T14:50:14.110Z,26.52
2019-04-26T14:52:39.249Z,22.75
2019-04-26T14:55:08.607Z,23.92
2019-04-26T14:57:37.964Z,22.05
2019-04-26T15:00:09.942Z,21.52
2019-04-26T15:02:55.995Z,24.05
2019-04-26T15:05:46.307Z,20.30
2019-04-26T15:08:13.890Z,26.68
2019-04-26T15:10:48.106Z,19.65
2019-04-26T15:13:20.208Z,19.60
2019-04-26T15:15:46.222Z,19.20
2019-04-26T15:18:15.759Z,23.50
2019-04-26T15:20:45.101Z,23.45
2019-04-26T15:23:14.444Z,21.27
2019-04-26T15:25:48.303Z,23.30
2019-04-26T15:28:14.843Z,24.37
2019-04-26T15:30:46.852Z,20.17
2019-04-26T15:33:15.372Z,23.50
2019-04-26T15:35:45.377Z,24.47
2019-04-26T15:38:14.758Z,20.20
2019-04-26T15:41:05.545Z,19.00
2019-04-26T15:43:57.362Z,16.97
2019-04-26T15:46:48.670Z,21.47
2019-04-26T15:49:32.233Z,21.23
2019-04-26T15:52:00.894Z,24.60
2019-04-26T15:54:33.625Z,22.90
2019-04-26T15:57:03.053Z,29.53
2019-04-26T15:59:35.328Z,24.13
2019-04-26T16:02:04.809Z,21.93
2019-04-26T16:04:34.336Z,23.63
2019-04-26T16:07:03.754Z,20.17
2019-04-26T16:09:34.955Z,24.60
2019-04-26T16:12:04.353Z,23.47
2019-04-26T16:14:36.436Z,25.93
2019-04-26T16:17:06.548Z,17.40
2019-04-26T16:19:35.802Z,25.53
2019-04-26T16:22:05.772Z,36.67
2019-04-26T16:24:35.116Z,24.80
2019-04-26T16:27:04.574Z,23.30
2019-04-26T16:29:59.666Z,20.10
2019-04-26T16:33:03.315Z,20.30
2019-04-26T16:35:32.755Z,23.87
2019-04-26T16:38:22.472Z,22.43
2019-04-26T16:40:53.510Z,23.43
2019-04-26T16:43:36.999Z,18.50
2019-04-26T16:45:54.462Z,23.63
2019-04-26T16:48:25.724Z,17.83
2019-04-26T16:50:54.987Z,15.23
2019-04-26T16:53:43.708Z,21.93
2019-04-26T16:55:57.741Z,28.70
2019-04-26T16:58:30.929Z,22.13
2019-04-26T17:00:58.371Z,26.33
2019-04-26T17:03:27.782Z,20.63
2019-04-26T17:06:05.259Z,23.90
2019-04-26T17:08:28.218Z,20.47
2019-04-26T17:11:00.752Z,22.43
2019-04-26T17:13:29.897Z,18.47
2019-04-26T17:16:00.036Z,23.60
2019-04-26T17:18:29.348Z,24.97
2019-04-26T17:20:58.762Z,19.77
2019-04-26T17:23:47.052Z,27.20
2019-04-26T17:26:42.778Z,20.67
2019-04-26T17:29:12.569Z,18.80
2019-04-26T17:31:43.117Z,19.73
2019-04-26T17:34:14.954Z,21.33
2019-04-26T17:36:46.402Z,22.90
2019-04-26T17:39:17.311Z,27.23
2019-04-26T17:41:51.830Z,21.97
2019-04-26T17:44:20.377Z,25.13
2019-04-26T17:46:56.373Z,28.93
2019-04-26T17:49:22.638Z,20.27
2019-04-26T17:51:57.694Z,19.30
2019-04-26T17:54:41.471Z,22.20
2019-04-26T17:56:53.701Z,24.33
2019-04-26T17:59:33.405Z,24.57
2019-04-26T18:02:01.193Z,28.47
2019-04-26T18:04:36.065Z,25.17
2019-04-26T18:07:03.835Z,24.70
2019-04-26T18:09:45.941Z,26.53
2019-04-26T18:12:04.727Z,21.10
2019-04-26T18:14:34.144Z,24.43
2019-04-26T18:17:17.855Z,22.97
2019-04-26T18:19:54.407Z,18.77
2019-04-26T18:22:28.393Z,19.93
2019-04-26T18:24:58.922Z,26.20
2019-04-26T18:27:29.981Z,22.43
2019-04-26T18:30:06.585Z,26.10
2019-04-26T18:32:33.939Z,23.03
2019-04-26T18:35:01.768Z,23.50
2019-04-26T18:37:31.132Z,24.73
2019-04-26T18:40:02.040Z,24.63
2019-04-26T18:42:33.343Z,22.73
2019-04-26T18:45:03.626Z,24.53
2019-04-26T18:47:37.635Z,20.13
2019-04-26T18:50:07.347Z,25.70
2019-04-26T18:52:39.065Z,25.20
2019-04-26T18:55:16.278Z,26.07
2019-04-26T18:57:47.356Z,25.70
2019-04-26T19:00:26.572Z,21.63
2019-04-26T19:02:55.544Z,25.83
2019-04-26T19:05:29.820Z,24.50
2019-04-26T19:07:56.014Z,33.53
2019-04-26T19:10:28.939Z,26.63
2019-04-26T19:13:00.198Z,31.97
2019-04-26T19:15:54.119Z,23.87
2019-04-26T19:18:52.927Z,25.73
2019-04-26T19:21:38.687Z,22.90
2019-04-26T19:24:07.302Z,23.77
2019-04-26T19:26:35.043Z,24.77
2019-04-26T19:29:15.438Z,17.77
2019-04-26T19:31:35.848Z,24.53
2019-04-26T19:34:05.228Z,22.63
2019-04-26T19:36:34.619Z,24.63
2019-04-26T19:39:05.357Z,23.87
2019-04-26T19:41:34.690Z,21.97
2019-04-26T19:44:04.292Z,21.10
2019-04-26T19:46:42.616Z,24.90
2019-04-26T19:49:33.795Z,24.10
2019-04-26T19:52:13.278Z,21.93
2019-04-26T19:54:46.556Z,21.83
2019-04-26T19:57:23.790Z,28.80
2019-04-26T19:59:52.990Z,20.97
2019-04-26T20:02:22.361Z,21.50
2019-04-26T20:04:51.718Z,20.03
2019-04-26T20:07:24.151Z,18.13
2019-04-26T20:09:52.450Z,18.17
2019-04-26T20:12:25.007Z,24.83
2019-04-26T20:14:58.051Z,22.57
2019-04-26T20:17:24.009Z,25.13
2019-04-26T20:19:54.482Z,22.20
2019-04-26T20:22:28.266Z,22.97
2019-04-26T20:24:57.441Z,28.80
2019-04-26T20:27:27.999Z,20.87
2019-04-26T20:29:57.562Z,27.53
2019-04-26T20:32:36.493Z,27.60
2019-04-26T20:35:13.237Z,19.80
2019-04-26T20:37:45.150Z,21.73
2019-04-26T20:40:22.193Z,17.53
2019-04-26T20:42:47.364Z,18.73
2019-04-26T20:45:17.290Z,23.73
2019-04-26T20:47:51.341Z,21.57
2019-04-26T20:50:17.784Z,23.40
2019-04-26T20:52:47.141Z,22.23
2019-04-26T20:55:16.485Z,24.40
2019-04-26T20:57:45.839Z,19.53
2019-04-26T21:00:17.047Z,26.97
2019-04-26T21:02:46.454Z,20.67
2019-04-26T21:05:15.798Z,19.23
2019-04-26T21:07:49.131Z,25.70
2019-04-26T21:10:21.822Z,19.50
2019-04-26T21:12:51.607Z,21.17
2019-04-26T21:15:20.370Z,20.53
2019-04-26T21:17:49.724Z,17.53
2019-04-26T21:20:19.070Z,21.70
2019-04-26T21:22:48.437Z,19.03
2019-04-26T21:25:32.570Z,18.67
2019-04-26T21:28:15.939Z,20.23
2019-04-26T21:31:03.519Z,21.37
2019-04-26T21:33:58.947Z,23.37
2019-04-26T21:36:46.104Z,16.73
2019-04-26T21:39:47.319Z,19.07
2019-04-26T21:42:17.169Z,24.13
2019-04-26T21:44:51.561Z,17.43
2019-04-26T21:47:16.771Z,22.53
2019-04-26T21:49:46.144Z,18.33
2019-04-26T21:52:15.476Z,20.20
2019-04-26T21:54:48.324Z,23.77
2019-04-26T21:57:18.326Z,18.37
2019-04-26T21:59:49.046Z,21.63
2019-04-26T22:02:18.302Z,22.17
2019-04-26T22:04:47.768Z,20.23
2019-04-26T22:07:17.239Z,28.57
2019-04-26T22:10:20.680Z,24.97
2019-04-26T22:12:50.119Z,25.77
2019-04-26T22:15:37.496Z,22.70
2019-04-26T22:18:14.911Z,22.50
2019-04-26T22:20:52.790Z,20.97
2019-04-26T22:23:30.055Z,20.00
2019-04-26T22:26:00.143Z,24.97
2019-04-26T22:28:35.458Z,24.17
2019-04-26T22:31:06.881Z,21.07
2019-04-26T22:33:34.229Z,25.07
2019-04-26T22:36:04.083Z,20.90
2019-04-26T22:38:34.095Z,22.60
2019-04-26T22:41:03.705Z,22.00
2019-04-26T22:44:00.866Z,21.83
2019-04-26T22:46:48.647Z,21.77
2019-04-26T22:49:13.283Z,22.80
2019-04-26T22:51:43.545Z,23.97
2019-04-26T22:54:13.002Z,21.67
2019-04-26T22:56:45.694Z,21.53
2019-04-26T22:59:13.963Z,21.20
2019-04-26T23:01:44.736Z,17.77
2019-04-26T23:04:16.212Z,20.93
2019-04-26T23:06:46.848Z,20.67
2019-04-26T23:09:20.434Z,19.13
2019-04-26T23:11:55.639Z,21.80
2019-04-26T23:15:00.654Z,20.17
2019-04-26T23:17:48.927Z,20.87
2019-04-26T23:20:46.467Z,18.80
2019-04-26T23:23:20.694Z,20.67
2019-04-26T23:25:54.102Z,17.57
2019-04-26T23:28:23.517Z,22.70
2019-04-26T23:30:53.224Z,19.40
2019-04-26T23:33:23.956Z,22.50
2019-04-26T23:35:53.447Z,22.73
2019-04-26T23:38:23.451Z,20.07
2019-04-26T23:41:01.056Z,22.63
2019-04-26T23:43:25.599Z,20.87
2019-04-26T23:45:55.191Z,15.50
2019-04-26T23:48:24.577Z,22.90
2019-04-26T23:50:54.353Z,20.33
2019-04-26T23:53:29.545Z,17.27
2019-04-26T23:56:04.948Z,21.10
2019-04-26T23:58:34.388Z,20.17
